createdAt,value
2023-02-19T00:02:24.936Z,99157.38
2023-02-19T00:08:26.644Z,99165.00
2023-02-19T00:14:28.502Z,99174.19
2023-02-19T00:20:30.968Z,99011.97
2023-02-19T00:26:33.433Z,99202.72
2023-02-19T00:32:35.246Z,99198.03
2023-02-19T00:38:38.336Z,99206.03
2023-02-19T00:44:40.793Z,99181.94
2023-02-19T00:50:43.234Z,99212.31
2023-02-19T00:56:45.720Z,99172.88
2023-02-19T01:02:48.496Z,99224.56
2023-02-19T01:08:51.660Z,99155.50
2023-02-19T01:14:54.089Z,99085.72
2023-02-19T01:20:56.532Z,99237.16
2023-02-19T01:26:58.986Z,99293.53
2023-02-19T01:33:01.449Z,99278.06
2023-02-19T01:39:08.913Z,99304.03
2023-02-19T01:45:19.424Z,99308.09
2023-02-19T01:51:22.875Z,99164.25
2023-02-19T01:57:29.355Z,99293.44
2023-02-19T02:03:32.822Z,99175.06
2023-02-19T02:09:53.347Z,99185.94
2023-02-19T02:16:25.015Z,99333.28
2023-02-19T02:22:37.449Z,99328.22
2023-02-19T02:29:07.027Z,99290.69
2023-02-19T02:35:13.516Z,99337.38
2023-02-19T02:41:17.928Z,99312.13
2023-02-19T02:47:39.545Z,99346.72
2023-02-19T02:54:16.139Z,99349.41
2023-02-19T03:00:19.624Z,99257.13
2023-02-19T03:06:25.125Z,99329.34
2023-02-19T03:12:50.677Z,99340.81
2023-02-19T03:19:14.353Z,99354.69
2023-02-19T03:25:39.523Z,99265.81
2023-02-19T03:31:44.416Z,99396.59
2023-02-19T03:37:55.719Z,99396.25
2023-02-19T03:44:01.197Z,99404.81
2023-02-19T03:50:18.704Z,99429.44
2023-02-19T03:56:40.213Z,99399.31
2023-02-19T04:03:01.111Z,99370.22
2023-02-19T04:09:09.320Z,99420.53
2023-02-19T04:15:19.827Z,99352.59
2023-02-19T04:21:24.288Z,99327.88
2023-02-19T04:27:45.233Z,99469.38
2023-02-19T04:33:52.750Z,99482.19
2023-02-19T04:39:55.752Z,99492.09
2023-02-19T04:46:02.262Z,99520.56
2023-02-19T04:52:04.678Z,99560.50
2023-02-19T04:58:07.110Z,99577.38
2023-02-19T05:04:10.558Z,99389.72
2023-02-19T05:10:13.102Z,99590.81
2023-02-19T05:16:16.494Z,99584.88
2023-02-19T05:22:18.478Z,99432.69
2023-02-19T05:28:21.435Z,99618.56
2023-02-19T05:34:23.856Z,99532.28
2023-02-19T05:40:26.317Z,99609.16
2023-02-19T05:46:30.821Z,99651.81
2023-02-19T05:52:33.224Z,99627.38
2023-02-19T05:58:35.741Z,99604.44
2023-02-19T06:04:38.157Z,99654.34
2023-02-19T06:10:41.606Z,99647.72
2023-02-19T06:16:44.081Z,99655.00
2023-02-19T06:22:45.924Z,99605.25
2023-02-19T06:28:49.972Z,99630.56
2023-02-19T06:34:52.489Z,99617.66
2023-02-19T06:40:54.928Z,99634.66
2023-02-19T06:46:57.458Z,99626.66
2023-02-19T06:52:59.870Z,99616.88
2023-02-19T06:59:06.316Z,99616.78
2023-02-19T07:05:08.794Z,99612.84
2023-02-19T07:11:11.546Z,99557.84
2023-02-19T07:17:13.682Z,99524.59
2023-02-19T07:23:16.120Z,99539.06
2023-02-19T07:29:18.973Z,99537.75
2023-02-19T07:35:20.772Z,99539.94
2023-02-19T07:41:23.565Z,99535.84
2023-02-19T07:47:26.039Z,99504.75
2023-02-19T07:53:29.516Z,99537.03
2023-02-19T07:59:31.962Z,99434.38
2023-02-19T08:05:38.413Z,99538.16
2023-02-19T08:11:58.971Z,99518.97
2023-02-19T08:18:01.434Z,99535.22
2023-02-19T08:24:03.904Z,99530.69
2023-02-19T08:30:06.368Z,99501.03
2023-02-19T08:36:09.848Z,99503.34
2023-02-19T08:42:12.263Z,99367.63
2023-02-19T08:48:15.748Z,99395.44
2023-02-19T08:54:17.540Z,99470.19
2023-02-19T09:00:19.515Z,99347.00
2023-02-19T09:06:22.106Z,99469.25
2023-02-19T09:12:24.563Z,99438.94
2023-02-19T09:18:27.035Z,99392.97
2023-02-19T09:24:29.488Z,99434.63
2023-02-19T09:30:32.014Z,99472.09
2023-02-19T09:36:34.463Z,99410.06
2023-02-19T09:42:36.688Z,99467.53
2023-02-19T09:48:39.346Z,99455.41
2023-02-19T09:54:44.774Z,99326.91
2023-02-19T10:00:50.242Z,99393.16
2023-02-19T10:06:53.703Z,99423.41
2023-02-19T10:13:07.176Z,99452.72
2023-02-19T10:19:15.691Z,99415.63
2023-02-19T10:25:25.198Z,99435.59
2023-02-19T10:31:27.772Z,99411.91
2023-02-19T10:37:32.133Z,99333.88
2023-02-19T10:43:42.648Z,99379.47
2023-02-19T10:49:47.137Z,99401.06
2023-02-19T10:55:49.580Z,99323.97
2023-02-19T11:01:59.118Z,99412.66
2023-02-19T11:08:01.558Z,99322.25
2023-02-19T11:14:19.082Z,99404.41
2023-02-19T11:20:21.557Z,99297.72
2023-02-19T11:26:28.096Z,99321.94
2023-02-19T11:32:31.574Z,99209.50
2023-02-19T11:38:34.066Z,99365.00
2023-02-19T11:45:23.681Z,99366.38
2023-02-19T11:51:41.212Z,99368.16
2023-02-19T11:57:48.713Z,99375.19
2023-02-19T12:04:18.264Z,99262.69
2023-02-19T12:10:34.752Z,99332.06
2023-02-19T12:16:52.015Z,99339.25
2023-02-19T12:23:05.794Z,99314.69
2023-02-19T12:29:17.305Z,99312.03
2023-02-19T12:35:39.932Z,99312.44
2023-02-19T12:41:52.362Z,99311.09
2023-02-19T12:48:21.922Z,99291.00
2023-02-19T12:54:38.434Z,99302.28
2023-02-19T13:00:50.508Z,99244.78
2023-02-19T13:06:56.435Z,99256.78
2023-02-19T13:13:04.947Z,99273.03
2023-02-19T13:19:06.729Z,99246.88
2023-02-19T13:25:10.240Z,99248.25
2023-02-19T13:31:59.745Z,99257.00
2023-02-19T13:38:04.003Z,99121.28
2023-02-19T13:44:11.510Z,99223.06
2023-02-19T13:50:26.005Z,99249.25
2023-02-19T13:56:34.781Z,99238.94
2023-02-19T14:02:36.639Z,99197.00
2023-02-19T14:08:51.391Z,99225.22
2023-02-19T14:14:56.949Z,99209.13
2023-02-19T14:21:18.514Z,99049.34
2023-02-19T14:27:21.653Z,99162.59
2023-02-19T14:33:37.469Z,99082.31
2023-02-19T14:39:43.275Z,99190.03
2023-02-19T14:45:55.414Z,99181.53
2023-02-19T14:52:01.893Z,99162.94
2023-02-19T14:58:14.431Z,99138.06
2023-02-19T15:04:35.979Z,99167.03
2023-02-19T15:10:41.376Z,99149.13
2023-02-19T15:16:43.872Z,99172.19
2023-02-19T15:22:48.783Z,99138.94
2023-02-19T15:29:01.280Z,99161.59
2023-02-19T15:35:05.362Z,99173.72
2023-02-19T15:41:08.975Z,99195.66
2023-02-19T15:47:22.316Z,99194.44
2023-02-19T15:53:30.787Z,99204.25
2023-02-19T15:59:47.293Z,99121.75
2023-02-19T16:06:15.882Z,99209.09
2023-02-19T16:12:24.364Z,99246.47
2023-02-19T16:18:26.855Z,99242.09
2023-02-19T16:24:37.313Z,99241.66
2023-02-19T16:30:39.868Z,99210.22
2023-02-19T16:36:44.242Z,99264.28
2023-02-19T16:42:49.733Z,99213.00
2023-02-19T16:48:52.182Z,99285.97
2023-02-19T16:54:54.646Z,99261.97
2023-02-19T17:00:57.200Z,99312.94
2023-02-19T17:07:00.575Z,99289.31
2023-02-19T17:13:03.038Z,99336.28
2023-02-19T17:19:16.541Z,99291.91
2023-02-19T17:25:19.043Z,99357.38
2023-02-19T17:31:21.597Z,99286.31
2023-02-19T17:37:23.965Z,99226.53
2023-02-19T17:43:26.458Z,99384.56
2023-02-19T17:49:28.895Z,99424.59
2023-02-19T17:55:31.346Z,99458.25
2023-02-19T18:01:33.838Z,99436.38
2023-02-19T18:07:36.274Z,99401.63
2023-02-19T18:13:40.615Z,99478.19
2023-02-19T18:19:47.467Z,99402.44
2023-02-19T18:25:49.640Z,99509.41
2023-02-19T18:31:54.551Z,99429.97
2023-02-19T18:37:59.448Z,99556.34
2023-02-19T18:44:02.037Z,99544.84
2023-02-19T18:50:04.500Z,99550.59
2023-02-19T18:56:09.961Z,99606.81
2023-02-19T19:02:13.418Z,99462.66
2023-02-19T19:08:15.910Z,99520.81
2023-02-19T19:14:18.365Z,99603.22
2023-02-19T19:20:22.397Z,99674.03
2023-02-19T19:26:24.562Z,99673.56
2023-02-19T19:32:26.634Z,99709.00
2023-02-19T19:38:28.424Z,99724.38
2023-02-19T19:44:30.732Z,99707.44
2023-02-19T19:50:33.165Z,99581.59
2023-02-19T19:56:43.814Z,99736.78
2023-02-19T20:02:48.203Z,99697.28
2023-02-19T20:08:50.647Z,99743.28
2023-02-19T20:14:53.122Z,99769.97
2023-02-19T20:20:55.564Z,99651.94
2023-02-19T20:26:59.335Z,99795.06
2023-02-19T20:33:01.093Z,99730.34
2023-02-19T20:39:03.411Z,99783.78
2023-02-19T20:45:06.104Z,99817.66
2023-02-19T20:51:07.886Z,99784.22
2023-02-19T20:57:13.426Z,99833.31
2023-02-19T21:03:17.843Z,99836.44
2023-02-19T21:09:22.273Z,99845.44
2023-02-19T21:15:31.534Z,99822.75
2023-02-19T21:21:41.318Z,99777.72
2023-02-19T21:27:45.743Z,99843.03
2023-02-19T21:33:59.183Z,99678.88
2023-02-19T21:40:19.757Z,99580.22
2023-02-19T21:46:28.722Z,99720.22
2023-02-19T21:52:31.695Z,99883.66
2023-02-19T21:58:34.175Z,99915.69
2023-02-19T22:04:36.636Z,99897.69
2023-02-19T22:10:42.078Z,99934.38
2023-02-19T22:16:44.600Z,99950.97
2023-02-19T22:22:47.039Z,99916.78
2023-02-19T22:28:50.466Z,99835.50
2023-02-19T22:34:53.925Z,99800.84
2023-02-19T22:40:56.421Z,99936.81
2023-02-19T22:46:58.916Z,99808.84
2023-02-19T22:53:01.292Z,99956.47
2023-02-19T22:59:03.752Z,99937.53
2023-02-19T23:05:06.216Z,99832.69
2023-02-19T23:11:11.700Z,99961.16
2023-02-19T23:17:22.719Z,99902.63
2023-02-19T23:23:25.640Z,99813.06
2023-02-19T23:29:29.651Z,99963.91
2023-02-19T23:35:32.556Z,99924.41
2023-02-19T23:41:34.985Z,99990.88
2023-02-19T23:47:37.443Z,100000.41
2023-02-19T23:53:39.980Z,100003.59
2023-02-19T23:59:42.388Z,100002.44
